sensor_id;sensor_type;location;lat;lon;timestamp;temperature;humidity
20481;DHT22;10399;50.754;3.366;2024-02-15T00:01:47;14.70;99.90
20481;DHT22;10399;50.754;3.366;2024-02-15T00:04:14;14.90;99.90
20481;DHT22;10399;50.754;3.366;2024-02-15T00:06:41;14.70;99.90
20481;DHT22;10399;50.754;3.366;2024-02-15T00:09:11;14.60;99.90
20481;DHT22;10399;50.754;3.366;2024-02-15T00:11:38;14.70;99.90
20481;DHT22;10399;50.754;3.366;2024-02-15T00:14:06;14.70;99.90
20481;DHT22;10399;50.754;3.366;2024-02-15T00:16:37;14.60;99.90
20481;DHT22;10399;50.754;3.366;2024-02-15T00:19:04;14.60;99.90
20481;DHT22;10399;50.754;3.366;2024-02-15T00:21:31;14.50;99.90
20481;DHT22;10399;50.754;3.366;2024-02-15T00:23:58;14.50;99.90
20481;DHT22;10399;50.754;3.366;2024-02-15T00:26:26;14.50;99.90
20481;DHT22;10399;50.754;3.366;2024-02-15T00:28:53;14.50;99.90
20481;DHT22;10399;50.754;3.366;2024-02-15T00:31:20;14.60;99.90
20481;DHT22;10399;50.754;3.366;2024-02-15T00:33:47;14.50;99.90
20481;DHT22;10399;50.754;3.366;2024-02-15T00:36:15;14.40;99.90
20481;DHT22;10399;50.754;3.366;2024-02-15T00:38:42;14.50;99.90
20481;DHT22;10399;50.754;3.366;2024-02-15T00:41:10;14.60;99.90
20481;DHT22;10399;50.754;3.366;2024-02-15T00:43:37;14.40;99.90
20481;DHT22;10399;50.754;3.366;2024-02-15T00:46:04;14.40;99.90
20481;DHT22;10399;50.754;3.366;2024-02-15T00:48:32;14.30;99.90
20481;DHT22;10399;50.754;3.366;2024-02-15T00:50:59;14.40;99.90
20481;DHT22;10399;50.754;3.366;2024-02-15T00:53:27;14.60;99.90
20481;DHT22;10399;50.754;3.366;2024-02-15T00:55:55;14.50;99.90
20481;DHT22;10399;50.754;3.366;2024-02-15T00:58:22;14.40;99.90
20481;DHT22;10399;50.754;3.366;2024-02-15T01:00:49;14.50;99.90
20481;DHT22;10399;50.754;3.366;2024-02-15T01:03:16;14.50;99.90
20481;DHT22;10399;50.754;3.366;2024-02-15T01:05:43;14.60;99.90
20481;DHT22;10399;50.754;3.366;2024-02-15T01:08:10;14.60;99.90
20481;DHT22;10399;50.754;3.366;2024-02-15T01:10:38;14.50;99.90
20481;DHT22;10399;50.754;3.366;2024-02-15T01:13:05;14.60;99.90
20481;DHT22;10399;50.754;3.366;2024-02-15T01:15:32;14.50;99.90
20481;DHT22;10399;50.754;3.366;2024-02-15T01:17:59;14.60;99.90
20481;DHT22;10399;50.754;3.366;2024-02-15T01:20:26;14.50;99.90
20481;DHT22;10399;50.754;3.366;2024-02-15T01:22:54;14.60;99.90
20481;DHT22;10399;50.754;3.366;2024-02-15T01:25:21;14.50;99.90
20481;DHT22;10399;50.754;3.366;2024-02-15T01:27:48;14.50;99.90
20481;DHT22;10399;50.754;3.366;2024-02-15T01:30:15;14.60;99.90
20481;DHT22;10399;50.754;3.366;2024-02-15T01:32:43;14.50;99.90
20481;DHT22;10399;50.754;3.366;2024-02-15T01:35:10;14.50;99.90
20481;DHT22;10399;50.754;3.366;2024-02-15T01:37:37;14.60;99.90
20481;DHT22;10399;50.754;3.366;2024-02-15T01:40:05;14.60;99.90
20481;DHT22;10399;50.754;3.366;2024-02-15T01:42:33;14.50;99.90
20481;DHT22;10399;50.754;3.366;2024-02-15T01:45:01;14.50;99.90
20481;DHT22;10399;50.754;3.366;2024-02-15T01:47:28;14.50;99.90
20481;DHT22;10399;50.754;3.366;2024-02-15T01:49:56;14.60;99.90
20481;DHT22;10399;50.754;3.366;2024-02-15T01:52:23;14.60;99.90
20481;DHT22;10399;50.754;3.366;2024-02-15T01:54:51;14.60;99.90
20481;DHT22;10399;50.754;3.366;2024-02-15T01:57:20;14.50;99.90
20481;DHT22;10399;50.754;3.366;2024-02-15T01:59:50;14.60;99.90
20481;DHT22;10399;50.754;3.366;2024-02-15T02:02:20;14.60;99.90
20481;DHT22;10399;50.754;3.366;2024-02-15T02:04:47;14.50;99.90
20481;DHT22;10399;50.754;3.366;2024-02-15T02:07:14;14.40;99.90
20481;DHT22;10399;50.754;3.366;2024-02-15T02:09:41;14.50;99.90
20481;DHT22;10399;50.754;3.366;2024-02-15T02:12:09;14.60;99.90
20481;DHT22;10399;50.754;3.366;2024-02-15T02:14:37;14.70;99.90
20481;DHT22;10399;50.754;3.366;2024-02-15T02:17:13;14.60;99.90
20481;DHT22;10399;50.754;3.366;2024-02-15T02:19:41;14.40;99.90
20481;DHT22;10399;50.754;3.366;2024-02-15T02:22:09;14.20;99.90
20481;DHT22;10399;50.754;3.366;2024-02-15T02:25:07;14.20;99.90
20481;DHT22;10399;50.754;3.366;2024-02-15T02:27:37;14.10;99.90
20481;DHT22;10399;50.754;3.366;2024-02-15T02:30:11;14.20;99.90
20481;DHT22;10399;50.754;3.366;2024-02-15T02:32:42;14.20;99.90
20481;DHT22;10399;50.754;3.366;2024-02-15T02:35:09;14.10;99.90
20481;DHT22;10399;50.754;3.366;2024-02-15T02:37:40;14.10;99.90
20481;DHT22;10399;50.754;3.366;2024-02-15T02:40:08;14.00;99.90
20481;DHT22;10399;50.754;3.366;2024-02-15T02:42:52;13.90;99.90
20481;DHT22;10399;50.754;3.366;2024-02-15T02:45:19;13.90;99.90
20481;DHT22;10399;50.754;3.366;2024-02-15T02:47:50;13.90;99.90
20481;DHT22;10399;50.754;3.366;2024-02-15T02:50:23;13.80;99.90
20481;DHT22;10399;50.754;3.366;2024-02-15T02:52:51;13.80;99.90
20481;DHT22;10399;50.754;3.366;2024-02-15T02:55:18;13.80;99.90
20481;DHT22;10399;50.754;3.366;2024-02-15T02:57:45;13.80;99.90
20481;DHT22;10399;50.754;3.366;2024-02-15T03:00:13;13.80;99.90
20481;DHT22;10399;50.754;3.366;2024-02-15T03:02:43;13.90;99.90
20481;DHT22;10399;50.754;3.366;2024-02-15T03:05:11;13.90;99.90
20481;DHT22;10399;50.754;3.366;2024-02-15T03:07:39;13.80;99.90
20481;DHT22;10399;50.754;3.366;2024-02-15T03:10:10;13.90;99.90
20481;DHT22;10399;50.754;3.366;2024-02-15T03:12:41;14.00;99.90
20481;DHT22;10399;50.754;3.366;2024-02-15T03:15:15;13.90;99.90
20481;DHT22;10399;50.754;3.366;2024-02-15T03:17:46;13.80;99.90
20481;DHT22;10399;50.754;3.366;2024-02-15T03:20:13;13.80;99.90
20481;DHT22;10399;50.754;3.366;2024-02-15T03:22:55;13.80;99.90
20481;DHT22;10399;50.754;3.366;2024-02-15T03:25:27;13.90;99.90
20481;DHT22;10399;50.754;3.366;2024-02-15T03:27:57;14.00;99.90
20481;DHT22;10399;50.754;3.366;2024-02-15T03:30:30;14.00;99.90
20481;DHT22;10399;50.754;3.366;2024-02-15T03:32:58;13.90;99.90
20481;DHT22;10399;50.754;3.366;2024-02-15T03:35:26;14.00;99.90
20481;DHT22;10399;50.754;3.366;2024-02-15T03:37:55;14.00;99.90
20481;DHT22;10399;50.754;3.366;2024-02-15T03:40:23;14.20;99.90
20481;DHT22;10399;50.754;3.366;2024-02-15T03:42:53;14.20;99.90
20481;DHT22;10399;50.754;3.366;2024-02-15T03:45:21;14.30;99.90
20481;DHT22;10399;50.754;3.366;2024-02-15T03:47:52;14.30;99.90
20481;DHT22;10399;50.754;3.366;2024-02-15T03:50:19;14.30;99.90
20481;DHT22;10399;50.754;3.366;2024-02-15T03:52:49;14.20;99.90
20481;DHT22;10399;50.754;3.366;2024-02-15T03:55:17;14.20;99.90
20481;DHT22;10399;50.754;3.366;2024-02-15T03:57:44;14.20;99.90
20481;DHT22;10399;50.754;3.366;2024-02-15T04:00:13;14.10;99.90
20481;DHT22;10399;50.754;3.366;2024-02-15T04:02:49;14.20;99.90
20481;DHT22;10399;50.754;3.366;2024-02-15T04:05:17;14.40;99.90
20481;DHT22;10399;50.754;3.366;2024-02-15T04:07:46;14.30;99.90
20481;DHT22;10399;50.754;3.366;2024-02-15T04:10:13;14.30;99.90
20481;DHT22;10399;50.754;3.366;2024-02-15T04:12:40;14.20;99.90
20481;DHT22;10399;50.754;3.366;2024-02-15T04:15:10;14.40;99.90
20481;DHT22;10399;50.754;3.366;2024-02-15T04:17:41;14.30;99.90
20481;DHT22;10399;50.754;3.366;2024-02-15T04:20:10;14.30;99.90
20481;DHT22;10399;50.754;3.366;2024-02-15T04:22:39;14.20;99.90
20481;DHT22;10399;50.754;3.366;2024-02-15T04:25:09;14.20;99.90
20481;DHT22;10399;50.754;3.366;2024-02-15T04:27:38;14.30;99.90
20481;DHT22;10399;50.754;3.366;2024-02-15T04:30:06;14.40;99.90
20481;DHT22;10399;50.754;3.366;2024-02-15T04:32:35;14.40;99.90
20481;DHT22;10399;50.754;3.366;2024-02-15T04:35:04;14.40;99.90
20481;DHT22;10399;50.754;3.366;2024-02-15T04:37:35;14.40;99.90
20481;DHT22;10399;50.754;3.366;2024-02-15T04:40:04;14.40;99.90
20481;DHT22;10399;50.754;3.366;2024-02-15T04:42:37;14.40;99.90
20481;DHT22;10399;50.754;3.366;2024-02-15T04:45:08;14.40;99.90
20481;DHT22;10399;50.754;3.366;2024-02-15T04:47:37;14.40;99.90
20481;DHT22;10399;50.754;3.366;2024-02-15T04:50:06;14.30;99.90
20481;DHT22;10399;50.754;3.366;2024-02-15T04:52:34;14.30;99.90
20481;DHT22;10399;50.754;3.366;2024-02-15T04:55:02;14.30;99.90
20481;DHT22;10399;50.754;3.366;2024-02-15T04:57:32;14.30;99.90
20481;DHT22;10399;50.754;3.366;2024-02-15T05:00:02;14.20;99.90
20481;DHT22;10399;50.754;3.366;2024-02-15T05:02:32;14.30;99.90
20481;DHT22;10399;50.754;3.366;2024-02-15T05:04:59;14.30;99.90
20481;DHT22;10399;50.754;3.366;2024-02-15T05:07:26;14.30;99.90
20481;DHT22;10399;50.754;3.366;2024-02-15T05:09:53;14.40;99.90
20481;DHT22;10399;50.754;3.366;2024-02-15T05:12:23;14.40;99.90
20481;DHT22;10399;50.754;3.366;2024-02-15T05:14:51;14.30;99.90
20481;DHT22;10399;50.754;3.366;2024-02-15T05:17:20;14.40;99.90
20481;DHT22;10399;50.754;3.366;2024-02-15T05:19:49;14.30;99.90
20481;DHT22;10399;50.754;3.366;2024-02-15T05:22:17;14.40;99.90
20481;DHT22;10399;50.754;3.366;2024-02-15T05:24:45;14.40;99.90
20481;DHT22;10399;50.754;3.366;2024-02-15T05:27:12;14.30;99.90
20481;DHT22;10399;50.754;3.366;2024-02-15T05:29:40;14.50;99.90
20481;DHT22;10399;50.754;3.366;2024-02-15T05:32:10;14.40;99.90
20481;DHT22;10399;50.754;3.366;2024-02-15T05:34:37;14.50;99.90
20481;DHT22;10399;50.754;3.366;2024-02-15T05:37:07;14.40;99.90
20481;DHT22;10399;50.754;3.366;2024-02-15T05:39:34;14.30;99.90
20481;DHT22;10399;50.754;3.366;2024-02-15T05:42:01;14.30;99.90
20481;DHT22;10399;50.754;3.366;2024-02-15T05:44:28;14.30;99.90
20481;DHT22;10399;50.754;3.366;2024-02-15T05:46:55;14.30;99.90
20481;DHT22;10399;50.754;3.366;2024-02-15T05:49:23;14.50;99.90
20481;DHT22;10399;50.754;3.366;2024-02-15T05:51:51;14.50;99.90
20481;DHT22;10399;50.754;3.366;2024-02-15T05:54:20;14.50;99.90
20481;DHT22;10399;50.754;3.366;2024-02-15T05:56:50;14.60;99.90
20481;DHT22;10399;50.754;3.366;2024-02-15T05:59:19;14.40;99.90
20481;DHT22;10399;50.754;3.366;2024-02-15T06:01:47;14.50;99.90
20481;DHT22;10399;50.754;3.366;2024-02-15T06:04:18;14.40;99.90
20481;DHT22;10399;50.754;3.366;2024-02-15T06:06:46;14.30;99.90
20481;DHT22;10399;50.754;3.366;2024-02-15T06:09:17;14.40;99.90
20481;DHT22;10399;50.754;3.366;2024-02-15T06:11:44;14.50;99.90
20481;DHT22;10399;50.754;3.366;2024-02-15T06:14:12;14.30;99.90
20481;DHT22;10399;50.754;3.366;2024-02-15T06:16:43;14.30;99.90
20481;DHT22;10399;50.754;3.366;2024-02-15T06:19:11;14.30;99.90
20481;DHT22;10399;50.754;3.366;2024-02-15T06:21:38;14.20;99.90
20481;DHT22;10399;50.754;3.366;2024-02-15T06:24:05;14.30;99.90
20481;DHT22;10399;50.754;3.366;2024-02-15T06:27:04;14.30;99.90
20481;DHT22;10399;50.754;3.366;2024-02-15T06:30:11;14.30;99.90
20481;DHT22;10399;50.754;3.366;2024-02-15T06:33:03;14.20;99.90
20481;DHT22;10399;50.754;3.366;2024-02-15T06:35:49;14.10;99.90
20481;DHT22;10399;50.754;3.366;2024-02-15T06:38:35;14.30;99.90
20481;DHT22;10399;50.754;3.366;2024-02-15T06:41:20;14.10;99.90
20481;DHT22;10399;50.754;3.366;2024-02-15T06:43:51;14.20;99.90
20481;DHT22;10399;50.754;3.366;2024-02-15T06:46:18;14.30;99.90
20481;DHT22;10399;50.754;3.366;2024-02-15T06:48:49;14.40;99.90
20481;DHT22;10399;50.754;3.366;2024-02-15T06:51:16;14.40;99.90
20481;DHT22;10399;50.754;3.366;2024-02-15T06:53:45;14.40;99.90
20481;DHT22;10399;50.754;3.366;2024-02-15T06:56:13;14.50;99.90
20481;DHT22;10399;50.754;3.366;2024-02-15T06:58:40;14.60;99.90
20481;DHT22;10399;50.754;3.366;2024-02-15T07:01:08;14.50;99.90
20481;DHT22;10399;50.754;3.366;2024-02-15T07:03:35;14.50;99.90
20481;DHT22;10399;50.754;3.366;2024-02-15T07:06:03;14.50;99.90
20481;DHT22;10399;50.754;3.366;2024-02-15T07:08:31;14.60;99.90
20481;DHT22;10399;50.754;3.366;2024-02-15T07:10:58;14.40;99.90
20481;DHT22;10399;50.754;3.366;2024-02-15T07:13:25;14.50;99.90
20481;DHT22;10399;50.754;3.366;2024-02-15T07:15:53;14.30;99.90
20481;DHT22;10399;50.754;3.366;2024-02-15T07:18:20;14.30;99.90
20481;DHT22;10399;50.754;3.366;2024-02-15T07:20:54;14.30;99.90
20481;DHT22;10399;50.754;3.366;2024-02-15T07:23:23;14.30;99.90
20481;DHT22;10399;50.754;3.366;2024-02-15T07:25:52;14.20;99.90
20481;DHT22;10399;50.754;3.366;2024-02-15T07:28:20;14.20;99.90
20481;DHT22;10399;50.754;3.366;2024-02-15T07:30:47;14.10;99.90
20481;DHT22;10399;50.754;3.366;2024-02-15T07:33:17;14.10;99.90
20481;DHT22;10399;50.754;3.366;2024-02-15T07:35:45;14.10;99.90
20481;DHT22;10399;50.754;3.366;2024-02-15T07:38:12;14.10;99.90
20481;DHT22;10399;50.754;3.366;2024-02-15T07:40:39;14.00;99.90
20481;DHT22;10399;50.754;3.366;2024-02-15T07:43:06;13.90;99.90
20481;DHT22;10399;50.754;3.366;2024-02-15T07:45:33;13.90;99.90
20481;DHT22;10399;50.754;3.366;2024-02-15T07:48:04;13.90;99.90
20481;DHT22;10399;50.754;3.366;2024-02-15T07:50:31;13.90;99.90
20481;DHT22;10399;50.754;3.366;2024-02-15T07:52:59;13.80;99.90
20481;DHT22;10399;50.754;3.366;2024-02-15T07:55:26;13.80;99.90
20481;DHT22;10399;50.754;3.366;2024-02-15T07:57:53;13.90;99.90
20481;DHT22;10399;50.754;3.366;2024-02-15T08:00:20;14.00;99.90
20481;DHT22;10399;50.754;3.366;2024-02-15T08:02:47;13.90;99.90
20481;DHT22;10399;50.754;3.366;2024-02-15T08:05:14;13.90;99.90
20481;DHT22;10399;50.754;3.366;2024-02-15T08:07:43;14.00;99.90
20481;DHT22;10399;50.754;3.366;2024-02-15T08:10:16;14.10;99.90
20481;DHT22;10399;50.754;3.366;2024-02-15T08:12:45;14.10;99.90
20481;DHT22;10399;50.754;3.366;2024-02-15T08:15:13;14.00;99.90
20481;DHT22;10399;50.754;3.366;2024-02-15T08:17:44;14.20;99.90
20481;DHT22;10399;50.754;3.366;2024-02-15T08:20:15;14.20;99.90
20481;DHT22;10399;50.754;3.366;2024-02-15T08:22:48;14.30;99.90
20481;DHT22;10399;50.754;3.366;2024-02-15T08:25:15;14.40;99.90
20481;DHT22;10399;50.754;3.366;2024-02-15T08:27:46;14.20;99.90
20481;DHT22;10399;50.754;3.366;2024-02-15T08:30:16;14.20;99.90
20481;DHT22;10399;50.754;3.366;2024-02-15T08:32:46;14.30;99.90
20481;DHT22;10399;50.754;3.366;2024-02-15T08:35:14;14.20;99.90
20481;DHT22;10399;50.754;3.366;2024-02-15T08:37:42;14.10;99.90
20481;DHT22;10399;50.754;3.366;2024-02-15T08:40:10;14.10;99.90
20481;DHT22;10399;50.754;3.366;2024-02-15T08:42:42;14.10;99.90
20481;DHT22;10399;50.754;3.366;2024-02-15T08:45:10;14.10;99.90
20481;DHT22;10399;50.754;3.366;2024-02-15T08:47:40;14.10;99.90
20481;DHT22;10399;50.754;3.366;2024-02-15T08:50:09;14.20;99.90
20481;DHT22;10399;50.754;3.366;2024-02-15T08:52:37;14.00;99.90
20481;DHT22;10399;50.754;3.366;2024-02-15T08:55:08;14.10;99.90
20481;DHT22;10399;50.754;3.366;2024-02-15T08:57:37;14.20;99.90
20481;DHT22;10399;50.754;3.366;2024-02-15T09:00:05;14.20;99.90
20481;DHT22;10399;50.754;3.366;2024-02-15T09:02:36;14.20;99.90
20481;DHT22;10399;50.754;3.366;2024-02-15T09:05:03;14.30;99.90
20481;DHT22;10399;50.754;3.366;2024-02-15T09:07:30;14.20;99.90
20481;DHT22;10399;50.754;3.366;2024-02-15T09:09:57;14.40;99.90
20481;DHT22;10399;50.754;3.366;2024-02-15T09:12:24;14.60;99.90
20481;DHT22;10399;50.754;3.366;2024-02-15T09:14:51;14.70;99.90
20481;DHT22;10399;50.754;3.366;2024-02-15T09:17:18;14.60;99.90
20481;DHT22;10399;50.754;3.366;2024-02-15T09:19:48;14.80;99.90
20481;DHT22;10399;50.754;3.366;2024-02-15T09:22:18;14.70;99.90
20481;DHT22;10399;50.754;3.366;2024-02-15T09:24:45;14.80;99.90
20481;DHT22;10399;50.754;3.366;2024-02-15T09:27:12;14.90;99.90
20481;DHT22;10399;50.754;3.366;2024-02-15T09:29:39;15.00;99.90
20481;DHT22;10399;50.754;3.366;2024-02-15T09:32:07;15.10;99.90
20481;DHT22;10399;50.754;3.366;2024-02-15T09:34:34;15.20;99.90
20481;DHT22;10399;50.754;3.366;2024-02-15T09:37:01;15.30;99.90
20481;DHT22;10399;50.754;3.366;2024-02-15T09:39:28;15.10;99.90
20481;DHT22;10399;50.754;3.366;2024-02-15T09:41:55;15.10;99.90
20481;DHT22;10399;50.754;3.366;2024-02-15T09:44:26;15.10;99.90
20481;DHT22;10399;50.754;3.366;2024-02-15T09:47:06;15.20;99.90
20481;DHT22;10399;50.754;3.366;2024-02-15T09:49:39;15.40;99.90
20481;DHT22;10399;50.754;3.366;2024-02-15T09:52:08;15.40;99.90
20481;DHT22;10399;50.754;3.366;2024-02-15T09:54:40;15.40;99.90
20481;DHT22;10399;50.754;3.366;2024-02-15T09:57:11;15.50;99.90
20481;DHT22;10399;50.754;3.366;2024-02-15T09:59:39;15.50;99.90
20481;DHT22;10399;50.754;3.366;2024-02-15T10:02:07;15.70;99.90
20481;DHT22;10399;50.754;3.366;2024-02-15T10:04:39;15.80;99.90
20481;DHT22;10399;50.754;3.366;2024-02-15T10:07:07;15.70;99.90
20481;DHT22;10399;50.754;3.366;2024-02-15T10:09:37;15.80;99.90
20481;DHT22;10399;50.754;3.366;2024-02-15T10:12:05;15.70;99.90
20481;DHT22;10399;50.754;3.366;2024-02-15T10:14:36;15.80;99.90
20481;DHT22;10399;50.754;3.366;2024-02-15T10:17:06;15.80;99.90
20481;DHT22;10399;50.754;3.366;2024-02-15T10:19:38;15.80;99.90
20481;DHT22;10399;50.754;3.366;2024-02-15T10:22:07;15.90;99.90
20481;DHT22;10399;50.754;3.366;2024-02-15T10:24:34;16.10;99.90
20481;DHT22;10399;50.754;3.366;2024-02-15T10:27:03;16.30;99.90
20481;DHT22;10399;50.754;3.366;2024-02-15T10:29:37;16.40;99.90
20481;DHT22;10399;50.754;3.366;2024-02-15T10:32:06;16.40;99.90
20481;DHT22;10399;50.754;3.366;2024-02-15T10:34:44;16.60;99.90
20481;DHT22;10399;50.754;3.366;2024-02-15T10:37:15;17.00;99.90
20481;DHT22;10399;50.754;3.366;2024-02-15T10:40:04;17.10;99.90
20481;DHT22;10399;50.754;3.366;2024-02-15T10:42:36;17.20;99.90
20481;DHT22;10399;50.754;3.366;2024-02-15T10:45:03;17.30;99.90
20481;DHT22;10399;50.754;3.366;2024-02-15T10:47:39;17.40;99.90
20481;DHT22;10399;50.754;3.366;2024-02-15T10:50:07;17.30;99.90
20481;DHT22;10399;50.754;3.366;2024-02-15T10:52:37;17.50;99.90
20481;DHT22;10399;50.754;3.366;2024-02-15T10:55:12;17.80;99.90
20481;DHT22;10399;50.754;3.366;2024-02-15T10:57:46;17.80;99.90
20481;DHT22;10399;50.754;3.366;2024-02-15T11:00:19;17.80;99.90
20481;DHT22;10399;50.754;3.366;2024-02-15T11:03:02;17.70;99.90
20481;DHT22;10399;50.754;3.366;2024-02-15T11:05:33;17.60;99.90
20481;DHT22;10399;50.754;3.366;2024-02-15T11:08:05;17.60;99.90
20481;DHT22;10399;50.754;3.366;2024-02-15T11:10:35;17.50;99.90
20481;DHT22;10399;50.754;3.366;2024-02-15T11:13:03;17.30;99.90
20481;DHT22;10399;50.754;3.366;2024-02-15T11:15:45;17.30;99.90
20481;DHT22;10399;50.754;3.366;2024-02-15T11:18:46;17.50;99.90
20481;DHT22;10399;50.754;3.366;2024-02-15T11:21:16;17.50;99.90
20481;DHT22;10399;50.754;3.366;2024-02-15T11:23:44;17.30;99.90
20481;DHT22;10399;50.754;3.366;2024-02-15T11:26:44;17.30;99.90
20481;DHT22;10399;50.754;3.366;2024-02-15T11:29:49;17.40;99.90
20481;DHT22;10399;50.754;3.366;2024-02-15T11:32:39;17.50;99.90
20481;DHT22;10399;50.754;3.366;2024-02-15T11:35:08;17.50;99.90
20481;DHT22;10399;50.754;3.366;2024-02-15T11:43:10;17.70;99.90
20481;DHT22;10399;50.754;3.366;2024-02-15T11:45:38;17.80;99.90
20481;DHT22;10399;50.754;3.366;2024-02-15T11:48:14;17.80;99.90
20481;DHT22;10399;50.754;3.366;2024-02-15T11:50:42;17.70;99.90
20481;DHT22;10399;50.754;3.366;2024-02-15T11:53:09;17.70;99.90
20481;DHT22;10399;50.754;3.366;2024-02-15T11:55:39;17.80;99.90
20481;DHT22;10399;50.754;3.366;2024-02-15T11:58:08;17.80;99.90
20481;DHT22;10399;50.754;3.366;2024-02-15T12:00:39;17.80;99.90
20481;DHT22;10399;50.754;3.366;2024-02-15T12:03:26;18.00;99.90
20481;DHT22;10399;50.754;3.366;2024-02-15T12:06:30;17.90;99.90
20481;DHT22;10399;50.754;3.366;2024-02-15T12:09:19;17.90;99.90
20481;DHT22;10399;50.754;3.366;2024-02-15T12:12:06;17.80;99.90
20481;DHT22;10399;50.754;3.366;2024-02-15T12:14:59;17.90;99.90
20481;DHT22;10399;50.754;3.366;2024-02-15T12:17:45;18.30;99.90
20481;DHT22;10399;50.754;3.366;2024-02-15T12:20:30;18.30;99.90
20481;DHT22;10399;50.754;3.366;2024-02-15T12:22:59;18.30;99.90
20481;DHT22;10399;50.754;3.366;2024-02-15T12:25:27;18.50;99.90
20481;DHT22;10399;50.754;3.366;2024-02-15T12:27:55;18.20;99.90
20481;DHT22;10399;50.754;3.366;2024-02-15T12:30:23;18.40;99.90
20481;DHT22;10399;50.754;3.366;2024-02-15T12:32:53;18.50;99.90
20481;DHT22;10399;50.754;3.366;2024-02-15T12:35:35;18.50;99.90
20481;DHT22;10399;50.754;3.366;2024-02-15T12:38:03;18.60;99.90
20481;DHT22;10399;50.754;3.366;2024-02-15T12:40:36;18.40;99.90
20481;DHT22;10399;50.754;3.366;2024-02-15T12:43:08;18.30;99.90
20481;DHT22;10399;50.754;3.366;2024-02-15T12:45:40;18.30;99.90
20481;DHT22;10399;50.754;3.366;2024-02-15T12:48:08;18.40;99.90
20481;DHT22;10399;50.754;3.366;2024-02-15T12:50:36;18.50;99.90
20481;DHT22;10399;50.754;3.366;2024-02-15T12:53:03;18.40;99.90
20481;DHT22;10399;50.754;3.366;2024-02-15T12:55:34;18.50;99.90
20481;DHT22;10399;50.754;3.366;2024-02-15T12:58:04;18.80;99.90
20481;DHT22;10399;50.754;3.366;2024-02-15T13:00:36;18.90;99.90
20481;DHT22;10399;50.754;3.366;2024-02-15T13:03:09;19.30;99.90
20481;DHT22;10399;50.754;3.366;2024-02-15T13:05:38;19.00;99.90
20481;DHT22;10399;50.754;3.366;2024-02-15T13:08:07;18.90;99.90
20481;DHT22;10399;50.754;3.366;2024-02-15T13:10:40;18.80;99.90
20481;DHT22;10399;50.754;3.366;2024-02-15T13:13:07;18.90;99.90
20481;DHT22;10399;50.754;3.366;2024-02-15T13:15:37;18.70;99.90
20481;DHT22;10399;50.754;3.366;2024-02-15T13:18:05;18.70;99.90
20481;DHT22;10399;50.754;3.366;2024-02-15T13:20:33;18.40;99.90
20481;DHT22;10399;50.754;3.366;2024-02-15T13:23:06;18.40;99.90
20481;DHT22;10399;50.754;3.366;2024-02-15T13:25:42;18.40;99.90
20481;DHT22;10399;50.754;3.366;2024-02-15T13:28:11;18.50;99.90
20481;DHT22;10399;50.754;3.366;2024-02-15T13:30:40;18.40;99.90
20481;DHT22;10399;50.754;3.366;2024-02-15T13:33:09;18.40;99.90
20481;DHT22;10399;50.754;3.366;2024-02-15T13:35:37;18.40;99.90
20481;DHT22;10399;50.754;3.366;2024-02-15T13:38:04;18.20;99.90
20481;DHT22;10399;50.754;3.366;2024-02-15T13:40:31;18.30;99.90
20481;DHT22;10399;50.754;3.366;2024-02-15T13:42:59;18.30;99.90
20481;DHT22;10399;50.754;3.366;2024-02-15T13:45:39;18.50;99.90
20481;DHT22;10399;50.754;3.366;2024-02-15T13:48:07;18.60;99.90
20481;DHT22;10399;50.754;3.366;2024-02-15T13:50:37;18.60;99.90
20481;DHT22;10399;50.754;3.366;2024-02-15T13:53:07;18.50;99.90
20481;DHT22;10399;50.754;3.366;2024-02-15T13:55:37;18.40;99.90
20481;DHT22;10399;50.754;3.366;2024-02-15T13:58:05;18.40;99.90
20481;DHT22;10399;50.754;3.366;2024-02-15T14:00:35;18.30;99.90
20481;DHT22;10399;50.754;3.366;2024-02-15T14:03:04;18.20;99.90
20481;DHT22;10399;50.754;3.366;2024-02-15T14:05:33;18.30;99.90
20481;DHT22;10399;50.754;3.366;2024-02-15T14:08:02;18.40;99.90
20481;DHT22;10399;50.754;3.366;2024-02-15T14:10:31;18.50;99.90
20481;DHT22;10399;50.754;3.366;2024-02-15T14:12:58;18.60;99.90
20481;DHT22;10399;50.754;3.366;2024-02-15T14:15:27;18.70;99.90
20481;DHT22;10399;50.754;3.366;2024-02-15T14:17:54;18.60;99.90
20481;DHT22;10399;50.754;3.366;2024-02-15T14:20:23;18.80;99.90
20481;DHT22;10399;50.754;3.366;2024-02-15T14:22:52;18.80;99.90
20481;DHT22;10399;50.754;3.366;2024-02-15T14:25:25;19.00;99.90
20481;DHT22;10399;50.754;3.366;2024-02-15T14:27:56;18.80;99.90
20481;DHT22;10399;50.754;3.366;2024-02-15T14:30:27;18.80;99.90
20481;DHT22;10399;50.754;3.366;2024-02-15T14:33:12;18.70;99.90
20481;DHT22;10399;50.754;3.366;2024-02-15T14:35:45;18.60;99.90
20481;DHT22;10399;50.754;3.366;2024-02-15T14:38:13;18.80;99.90
20481;DHT22;10399;50.754;3.366;2024-02-15T14:40:45;18.60;99.90
20481;DHT22;10399;50.754;3.366;2024-02-15T14:43:17;18.40;99.90
20481;DHT22;10399;50.754;3.366;2024-02-15T14:45:47;18.30;99.90
20481;DHT22;10399;50.754;3.366;2024-02-15T14:48:15;18.20;99.90
20481;DHT22;10399;50.754;3.366;2024-02-15T14:50:44;18.20;99.90
20481;DHT22;10399;50.754;3.366;2024-02-15T14:53:13;18.30;99.90
20481;DHT22;10399;50.754;3.366;2024-02-15T14:55:42;18.30;99.90
20481;DHT22;10399;50.754;3.366;2024-02-15T14:58:13;18.30;99.90
20481;DHT22;10399;50.754;3.366;2024-02-15T15:00:41;18.50;99.90
20481;DHT22;10399;50.754;3.366;2024-02-15T15:03:13;18.40;99.90
20481;DHT22;10399;50.754;3.366;2024-02-15T15:05:41;18.20;99.90
20481;DHT22;10399;50.754;3.366;2024-02-15T15:08:27;18.10;99.90
20481;DHT22;10399;50.754;3.366;2024-02-15T15:11:13;17.90;99.90
20481;DHT22;10399;50.754;3.366;2024-02-15T15:13:59;18.00;99.90
20481;DHT22;10399;50.754;3.366;2024-02-15T15:16:26;18.10;99.90
20481;DHT22;10399;50.754;3.366;2024-02-15T15:18:55;18.00;99.90
20481;DHT22;10399;50.754;3.366;2024-02-15T15:21:23;17.80;99.90
20481;DHT22;10399;50.754;3.366;2024-02-15T15:23:51;17.90;99.90
20481;DHT22;10399;50.754;3.366;2024-02-15T15:26:19;17.90;99.90
20481;DHT22;10399;50.754;3.366;2024-02-15T15:28:47;17.90;99.90
20481;DHT22;10399;50.754;3.366;2024-02-15T15:31:15;17.90;99.90
20481;DHT22;10399;50.754;3.366;2024-02-15T15:33:43;17.90;99.90
20481;DHT22;10399;50.754;3.366;2024-02-15T15:36:10;17.70;99.90
20481;DHT22;10399;50.754;3.366;2024-02-15T15:38:38;17.60;99.90
20481;DHT22;10399;50.754;3.366;2024-02-15T15:41:07;17.80;99.90
20481;DHT22;10399;50.754;3.366;2024-02-15T15:43:36;17.70;99.90
20481;DHT22;10399;50.754;3.366;2024-02-15T15:46:04;17.70;99.90
20481;DHT22;10399;50.754;3.366;2024-02-15T15:48:32;17.70;99.90
20481;DHT22;10399;50.754;3.366;2024-02-15T15:51:03;17.70;99.90
20481;DHT22;10399;50.754;3.366;2024-02-15T15:53:32;17.60;99.90
20481;DHT22;10399;50.754;3.366;2024-02-15T15:56:01;17.50;99.90